sensor_id;sensor_type;location;lat;lon;timestamp;P1;durP1;ratioP1;P2;durP2;ratioP2
37973;SDS011;23796;51.458;7.000;2023-03-19T00:01:54;4.80;;;1.75;;
37973;SDS011;23796;51.458;7.000;2023-03-19T00:04:21;4.25;;;1.60;;
37973;SDS011;23796;51.458;7.000;2023-03-19T00:06:48;3.88;;;1.55;;
37973;SDS011;23796;51.458;7.000;2023-03-19T00:09:14;3.88;;;1.80;;
37973;SDS011;23796;51.458;7.000;2023-03-19T00:11:42;5.35;;;1.90;;
37973;SDS011;23796;51.458;7.000;2023-03-19T00:14:07;3.88;;;1.65;;
37973;SDS011;23796;51.458;7.000;2023-03-19T00:16:33;5.82;;;1.95;;
37973;SDS011;23796;51.458;7.000;2023-03-19T00:19:00;4.65;;;1.90;;
37973;SDS011;23796;51.458;7.000;2023-03-19T00:21:26;3.92;;;1.92;;
37973;SDS011;23796;51.458;7.000;2023-03-19T00:23:52;5.35;;;2.03;;
37973;SDS011;23796;51.458;7.000;2023-03-19T00:26:18;6.72;;;2.45;;
37973;SDS011;23796;51.458;7.000;2023-03-19T00:28:43;6.97;;;2.60;;
37973;SDS011;23796;51.458;7.000;2023-03-19T00:31:12;4.97;;;1.95;;
37973;SDS011;23796;51.458;7.000;2023-03-19T00:33:41;7.15;;;2.50;;
37973;SDS011;23796;51.458;7.000;2023-03-19T00:36:09;5.50;;;2.20;;
37973;SDS011;23796;51.458;7.000;2023-03-19T00:38:35;6.30;;;2.10;;
37973;SDS011;23796;51.458;7.000;2023-03-19T00:41:01;6.25;;;2.13;;
37973;SDS011;23796;51.458;7.000;2023-03-19T00:43:28;4.65;;;2.22;;
37973;SDS011;23796;51.458;7.000;2023-03-19T00:45:53;6.35;;;2.65;;
37973;SDS011;23796;51.458;7.000;2023-03-19T00:48:21;6.88;;;2.25;;
37973;SDS011;23796;51.458;7.000;2023-03-19T00:50:47;5.40;;;2.60;;
37973;SDS011;23796;51.458;7.000;2023-03-19T00:53:13;6.10;;;2.17;;
37973;SDS011;23796;51.458;7.000;2023-03-19T00:55:39;6.25;;;2.13;;
37973;SDS011;23796;51.458;7.000;2023-03-19T00:58:05;6.32;;;2.55;;
37973;SDS011;23796;51.458;7.000;2023-03-19T01:00:31;5.13;;;2.30;;
37973;SDS011;23796;51.458;7.000;2023-03-19T01:03:00;5.13;;;2.33;;
37973;SDS011;23796;51.458;7.000;2023-03-19T01:05:26;4.72;;;2.22;;
37973;SDS011;23796;51.458;7.000;2023-03-19T01:07:51;5.68;;;2.45;;
37973;SDS011;23796;51.458;7.000;2023-03-19T01:10:20;5.40;;;1.92;;
37973;SDS011;23796;51.458;7.000;2023-03-19T01:12:47;5.55;;;3.10;;
37973;SDS011;23796;51.458;7.000;2023-03-19T01:15:13;5.32;;;2.30;;
37973;SDS011;23796;51.458;7.000;2023-03-19T01:17:39;7.20;;;2.75;;
37973;SDS011;23796;51.458;7.000;2023-03-19T01:20:08;4.40;;;2.33;;
37973;SDS011;23796;51.458;7.000;2023-03-19T01:22:40;7.18;;;3.30;;
37973;SDS011;23796;51.458;7.000;2023-03-19T01:25:12;5.40;;;2.78;;
37973;SDS011;23796;51.458;7.000;2023-03-19T01:27:38;6.15;;;2.67;;
37973;SDS011;23796;51.458;7.000;2023-03-19T01:30:05;8.60;;;3.85;;
37973;SDS011;23796;51.458;7.000;2023-03-19T01:32:31;6.40;;;2.88;;
37973;SDS011;23796;51.458;7.000;2023-03-19T01:34:57;4.90;;;2.40;;
37973;SDS011;23796;51.458;7.000;2023-03-19T01:37:25;4.93;;;2.30;;
37973;SDS011;23796;51.458;7.000;2023-03-19T01:39:53;5.45;;;2.20;;
37973;SDS011;23796;51.458;7.000;2023-03-19T01:42:19;6.05;;;2.00;;
37973;SDS011;23796;51.458;7.000;2023-03-19T01:44:45;4.22;;;2.00;;
37973;SDS011;23796;51.458;7.000;2023-03-19T01:47:16;5.28;;;2.40;;
37973;SDS011;23796;51.458;7.000;2023-03-19T01:49:51;4.82;;;2.10;;
37973;SDS011;23796;51.458;7.000;2023-03-19T01:52:19;6.07;;;1.88;;
37973;SDS011;23796;51.458;7.000;2023-03-19T01:54:49;3.90;;;1.73;;
37973;SDS011;23796;51.458;7.000;2023-03-19T01:57:15;4.82;;;2.05;;
37973;SDS011;23796;51.458;7.000;2023-03-19T01:59:49;6.20;;;1.90;;
37973;SDS011;23796;51.458;7.000;2023-03-19T02:04:55;5.25;;;2.08;;
37973;SDS011;23796;51.458;7.000;2023-03-19T02:07:25;8.68;;;2.50;;
37973;SDS011;23796;51.458;7.000;2023-03-19T02:09:53;4.82;;;2.25;;
37973;SDS011;23796;51.458;7.000;2023-03-19T02:12:19;5.45;;;2.00;;
37973;SDS011;23796;51.458;7.000;2023-03-19T02:14:44;3.20;;;1.92;;
37973;SDS011;23796;51.458;7.000;2023-03-19T02:17:10;6.28;;;2.13;;
37973;SDS011;23796;51.458;7.000;2023-03-19T02:19:42;6.22;;;2.35;;
37973;SDS011;23796;51.458;7.000;2023-03-19T02:22:16;5.05;;;2.20;;
37973;SDS011;23796;51.458;7.000;2023-03-19T02:24:49;5.95;;;2.17;;
37973;SDS011;23796;51.458;7.000;2023-03-19T02:27:16;3.85;;;1.90;;
37973;SDS011;23796;51.458;7.000;2023-03-19T02:29:41;5.28;;;1.90;;
37973;SDS011;23796;51.458;7.000;2023-03-19T02:32:07;4.75;;;2.00;;
37973;SDS011;23796;51.458;7.000;2023-03-19T02:34:34;6.97;;;3.10;;
37973;SDS011;23796;51.458;7.000;2023-03-19T02:37:07;6.90;;;2.58;;
37973;SDS011;23796;51.458;7.000;2023-03-19T02:39:35;5.55;;;2.22;;
37973;SDS011;23796;51.458;7.000;2023-03-19T02:42:03;5.30;;;2.13;;
37973;SDS011;23796;51.458;7.000;2023-03-19T02:44:30;4.00;;;2.10;;
37973;SDS011;23796;51.458;7.000;2023-03-19T02:46:55;5.78;;;2.30;;
37973;SDS011;23796;51.458;7.000;2023-03-19T02:49:21;5.70;;;2.20;;
37973;SDS011;23796;51.458;7.000;2023-03-19T02:51:47;5.10;;;2.00;;
37973;SDS011;23796;51.458;7.000;2023-03-19T02:54:13;6.07;;;2.55;;
37973;SDS011;23796;51.458;7.000;2023-03-19T02:56:39;7.65;;;2.47;;
37973;SDS011;23796;51.458;7.000;2023-03-19T02:59:04;5.35;;;2.00;;
37973;SDS011;23796;51.458;7.000;2023-03-19T03:01:30;6.60;;;2.17;;
37973;SDS011;23796;51.458;7.000;2023-03-19T03:04:01;6.25;;;2.30;;
37973;SDS011;23796;51.458;7.000;2023-03-19T03:06:27;4.65;;;1.73;;
37973;SDS011;23796;51.458;7.000;2023-03-19T03:08:55;4.07;;;1.83;;
37973;SDS011;23796;51.458;7.000;2023-03-19T03:11:20;4.18;;;1.98;;
37973;SDS011;23796;51.458;7.000;2023-03-19T03:13:46;4.00;;;1.98;;
37973;SDS011;23796;51.458;7.000;2023-03-19T03:16:12;5.18;;;1.73;;
37973;SDS011;23796;51.458;7.000;2023-03-19T03:18:37;5.20;;;1.75;;
37973;SDS011;23796;51.458;7.000;2023-03-19T03:21:06;4.32;;;2.00;;
37973;SDS011;23796;51.458;7.000;2023-03-19T03:23:34;4.68;;;1.70;;
37973;SDS011;23796;51.458;7.000;2023-03-19T03:26:00;4.68;;;1.65;;
37973;SDS011;23796;51.458;7.000;2023-03-19T03:28:29;4.50;;;1.60;;
37973;SDS011;23796;51.458;7.000;2023-03-19T03:30:57;5.43;;;1.80;;
37973;SDS011;23796;51.458;7.000;2023-03-19T03:33:26;3.53;;;1.45;;
37973;SDS011;23796;51.458;7.000;2023-03-19T03:35:55;3.67;;;1.65;;
37973;SDS011;23796;51.458;7.000;2023-03-19T03:38:20;6.20;;;1.70;;
37973;SDS011;23796;51.458;7.000;2023-03-19T03:40:49;3.88;;;1.58;;
37973;SDS011;23796;51.458;7.000;2023-03-19T03:43:16;3.38;;;1.23;;
37973;SDS011;23796;51.458;7.000;2023-03-19T03:45:43;4.57;;;1.55;;
37973;SDS011;23796;51.458;7.000;2023-03-19T03:48:09;3.33;;;1.65;;
37973;SDS011;23796;51.458;7.000;2023-03-19T03:50:37;5.38;;;1.60;;
37973;SDS011;23796;51.458;7.000;2023-03-19T03:53:05;3.97;;;1.52;;
37973;SDS011;23796;51.458;7.000;2023-03-19T03:55:31;5.40;;;1.88;;
37973;SDS011;23796;51.458;7.000;2023-03-19T03:57:57;3.08;;;1.38;;
37973;SDS011;23796;51.458;7.000;2023-03-19T04:00:26;4.65;;;1.60;;
37973;SDS011;23796;51.458;7.000;2023-03-19T04:02:51;4.32;;;1.58;;
37973;SDS011;23796;51.458;7.000;2023-03-19T04:05:17;3.72;;;1.55;;
37973;SDS011;23796;51.458;7.000;2023-03-19T04:07:43;4.88;;;1.45;;
37973;SDS011;23796;51.458;7.000;2023-03-19T04:10:11;3.83;;;1.40;;
37973;SDS011;23796;51.458;7.000;2023-03-19T04:12:38;4.18;;;1.63;;
37973;SDS011;23796;51.458;7.000;2023-03-19T04:15:05;3.60;;;1.50;;
37973;SDS011;23796;51.458;7.000;2023-03-19T04:17:33;4.00;;;1.60;;
37973;SDS011;23796;51.458;7.000;2023-03-19T04:19:59;3.35;;;1.50;;
37973;SDS011;23796;51.458;7.000;2023-03-19T04:22:26;4.47;;;1.70;;
37973;SDS011;23796;51.458;7.000;2023-03-19T04:24:52;5.13;;;1.70;;
37973;SDS011;23796;51.458;7.000;2023-03-19T04:27:19;6.25;;;1.67;;
37973;SDS011;23796;51.458;7.000;2023-03-19T04:29:45;7.43;;;2.13;;
37973;SDS011;23796;51.458;7.000;2023-03-19T04:32:13;5.78;;;1.83;;
37973;SDS011;23796;51.458;7.000;2023-03-19T04:34:39;4.28;;;1.80;;
37973;SDS011;23796;51.458;7.000;2023-03-19T04:37:05;4.75;;;1.85;;
37973;SDS011;23796;51.458;7.000;2023-03-19T04:39:34;3.70;;;1.60;;
37973;SDS011;23796;51.458;7.000;2023-03-19T04:42:02;4.53;;;2.17;;
37973;SDS011;23796;51.458;7.000;2023-03-19T04:44:32;4.75;;;2.30;;
37973;SDS011;23796;51.458;7.000;2023-03-19T04:46:57;4.13;;;1.83;;
37973;SDS011;23796;51.458;7.000;2023-03-19T04:49:23;3.67;;;1.60;;
37973;SDS011;23796;51.458;7.000;2023-03-19T04:51:49;3.08;;;1.23;;
37973;SDS011;23796;51.458;7.000;2023-03-19T04:54:15;4.28;;;1.80;;
37973;SDS011;23796;51.458;7.000;2023-03-19T04:56:41;4.78;;;1.77;;
37973;SDS011;23796;51.458;7.000;2023-03-19T04:59:06;4.95;;;1.90;;
37973;SDS011;23796;51.458;7.000;2023-03-19T05:01:32;4.05;;;1.38;;
37973;SDS011;23796;51.458;7.000;2023-03-19T05:03:58;5.07;;;1.33;;
37973;SDS011;23796;51.458;7.000;2023-03-19T05:06:24;5.53;;;1.80;;
37973;SDS011;23796;51.458;7.000;2023-03-19T05:08:51;4.15;;;1.77;;
37973;SDS011;23796;51.458;7.000;2023-03-19T05:11:16;3.88;;;1.40;;
37973;SDS011;23796;51.458;7.000;2023-03-19T05:13:42;4.38;;;1.80;;
37973;SDS011;23796;51.458;7.000;2023-03-19T05:16:10;4.65;;;1.50;;
37973;SDS011;23796;51.458;7.000;2023-03-19T05:18:37;4.60;;;1.50;;
37973;SDS011;23796;51.458;7.000;2023-03-19T05:21:03;5.78;;;1.48;;
37973;SDS011;23796;51.458;7.000;2023-03-19T05:23:28;4.38;;;1.38;;
37973;SDS011;23796;51.458;7.000;2023-03-19T05:25:57;3.40;;;1.48;;
37973;SDS011;23796;51.458;7.000;2023-03-19T05:28:24;3.85;;;1.50;;
37973;SDS011;23796;51.458;7.000;2023-03-19T05:30:50;4.65;;;1.67;;
37973;SDS011;23796;51.458;7.000;2023-03-19T05:33:18;3.92;;;1.42;;
37973;SDS011;23796;51.458;7.000;2023-03-19T05:35:44;4.32;;;1.75;;
37973;SDS011;23796;51.458;7.000;2023-03-19T05:38:10;4.28;;;1.98;;
37973;SDS011;23796;51.458;7.000;2023-03-19T05:40:35;4.03;;;1.70;;
37973;SDS011;23796;51.458;7.000;2023-03-19T05:43:03;3.65;;;1.40;;
37973;SDS011;23796;51.458;7.000;2023-03-19T05:45:29;3.15;;;1.40;;
37973;SDS011;23796;51.458;7.000;2023-03-19T05:47:55;5.65;;;1.70;;
37973;SDS011;23796;51.458;7.000;2023-03-19T05:50:20;3.47;;;1.60;;
37973;SDS011;23796;51.458;7.000;2023-03-19T05:52:46;3.35;;;1.40;;
37973;SDS011;23796;51.458;7.000;2023-03-19T05:55:12;4.85;;;2.13;;
37973;SDS011;23796;51.458;7.000;2023-03-19T05:57:37;4.45;;;2.00;;
37973;SDS011;23796;51.458;7.000;2023-03-19T06:00:04;3.25;;;1.70;;
37973;SDS011;23796;51.458;7.000;2023-03-19T06:02:31;3.45;;;1.67;;
37973;SDS011;23796;51.458;7.000;2023-03-19T06:04:57;4.30;;;2.03;;
37973;SDS011;23796;51.458;7.000;2023-03-19T06:07:22;4.68;;;1.80;;
37973;SDS011;23796;51.458;7.000;2023-03-19T06:09:48;3.40;;;1.70;;
37973;SDS011;23796;51.458;7.000;2023-03-19T06:12:16;4.88;;;1.88;;
37973;SDS011;23796;51.458;7.000;2023-03-19T06:14:44;4.28;;;2.03;;
37973;SDS011;23796;51.458;7.000;2023-03-19T06:17:11;3.70;;;1.50;;
37973;SDS011;23796;51.458;7.000;2023-03-19T06:19:36;4.82;;;2.20;;
37973;SDS011;23796;51.458;7.000;2023-03-19T06:22:02;5.18;;;2.20;;
37973;SDS011;23796;51.458;7.000;2023-03-19T06:24:30;5.45;;;2.00;;
37973;SDS011;23796;51.458;7.000;2023-03-19T06:26:58;5.25;;;2.40;;
37973;SDS011;23796;51.458;7.000;2023-03-19T06:29:24;4.85;;;2.03;;
37973;SDS011;23796;51.458;7.000;2023-03-19T06:31:53;3.97;;;2.22;;
37973;SDS011;23796;51.458;7.000;2023-03-19T06:34:18;4.07;;;2.20;;
37973;SDS011;23796;51.458;7.000;2023-03-19T06:36:44;4.35;;;2.05;;
37973;SDS011;23796;51.458;7.000;2023-03-19T06:39:10;4.13;;;2.13;;
37973;SDS011;23796;51.458;7.000;2023-03-19T06:41:36;6.35;;;2.50;;
37973;SDS011;23796;51.458;7.000;2023-03-19T06:44:03;4.15;;;2.10;;
37973;SDS011;23796;51.458;7.000;2023-03-19T06:46:31;5.47;;;2.20;;
37973;SDS011;23796;51.458;7.000;2023-03-19T06:48:57;4.45;;;2.20;;
37973;SDS011;23796;51.458;7.000;2023-03-19T06:51:24;5.82;;;2.13;;
37973;SDS011;23796;51.458;7.000;2023-03-19T06:53:51;4.93;;;1.90;;
37973;SDS011;23796;51.458;7.000;2023-03-19T06:56:17;4.57;;;2.30;;
37973;SDS011;23796;51.458;7.000;2023-03-19T06:58:43;8.25;;;2.85;;
37973;SDS011;23796;51.458;7.000;2023-03-19T07:01:08;5.20;;;2.20;;
37973;SDS011;23796;51.458;7.000;2023-03-19T07:03:36;5.78;;;2.60;;
37973;SDS011;23796;51.458;7.000;2023-03-19T07:06:05;4.97;;;2.25;;
37973;SDS011;23796;51.458;7.000;2023-03-19T07:08:31;3.70;;;1.90;;
37973;SDS011;23796;51.458;7.000;2023-03-19T07:11:05;3.53;;;1.73;;
37973;SDS011;23796;51.458;7.000;2023-03-19T07:15:57;4.15;;;2.22;;
37973;SDS011;23796;51.458;7.000;2023-03-19T07:18:23;4.40;;;2.00;;
37973;SDS011;23796;51.458;7.000;2023-03-19T07:20:50;4.45;;;2.00;;
37973;SDS011;23796;51.458;7.000;2023-03-19T07:23:17;3.60;;;2.00;;
37973;SDS011;23796;51.458;7.000;2023-03-19T07:25:43;3.50;;;1.90;;
37973;SDS011;23796;51.458;7.000;2023-03-19T07:28:11;6.13;;;2.90;;
37973;SDS011;23796;51.458;7.000;2023-03-19T07:30:40;4.57;;;2.45;;
37973;SDS011;23796;51.458;7.000;2023-03-19T07:33:08;5.50;;;2.05;;
37973;SDS011;23796;51.458;7.000;2023-03-19T07:35:34;5.63;;;2.33;;
37973;SDS011;23796;51.458;7.000;2023-03-19T07:38:03;4.00;;;2.38;;
37973;SDS011;23796;51.458;7.000;2023-03-19T07:40:30;4.45;;;2.33;;
37973;SDS011;23796;51.458;7.000;2023-03-19T07:42:56;4.63;;;2.30;;
37973;SDS011;23796;51.458;7.000;2023-03-19T07:45:22;4.28;;;2.25;;
37973;SDS011;23796;51.458;7.000;2023-03-19T07:47:50;4.35;;;2.38;;
37973;SDS011;23796;51.458;7.000;2023-03-19T07:50:18;5.53;;;2.53;;
37973;SDS011;23796;51.458;7.000;2023-03-19T07:52:47;4.88;;;2.33;;
37973;SDS011;23796;51.458;7.000;2023-03-19T07:55:15;5.25;;;2.38;;
37973;SDS011;23796;51.458;7.000;2023-03-19T07:57:41;4.28;;;2.60;;
37973;SDS011;23796;51.458;7.000;2023-03-19T08:00:07;4.43;;;2.05;;
37973;SDS011;23796;51.458;7.000;2023-03-19T08:02:36;3.88;;;2.00;;
37973;SDS011;23796;51.458;7.000;2023-03-19T08:05:02;4.10;;;2.28;;
37973;SDS011;23796;51.458;7.000;2023-03-19T08:07:30;6.00;;;2.05;;
37973;SDS011;23796;51.458;7.000;2023-03-19T08:09:56;3.55;;;2.08;;
37973;SDS011;23796;51.458;7.000;2023-03-19T08:12:23;3.95;;;2.35;;
37973;SDS011;23796;51.458;7.000;2023-03-19T08:14:49;3.65;;;2.10;;
37973;SDS011;23796;51.458;7.000;2023-03-19T08:17:15;4.85;;;2.13;;
37973;SDS011;23796;51.458;7.000;2023-03-19T08:19:41;4.25;;;1.90;;
37973;SDS011;23796;51.458;7.000;2023-03-19T08:22:06;3.65;;;1.73;;
37973;SDS011;23796;51.458;7.000;2023-03-19T08:24:32;3.35;;;1.92;;
37973;SDS011;23796;51.458;7.000;2023-03-19T08:26:58;3.55;;;1.98;;
37973;SDS011;23796;51.458;7.000;2023-03-19T08:29:24;4.90;;;2.08;;
37973;SDS011;23796;51.458;7.000;2023-03-19T08:31:53;5.18;;;2.30;;
37973;SDS011;23796;51.458;7.000;2023-03-19T08:34:20;4.35;;;2.05;;
37973;SDS011;23796;51.458;7.000;2023-03-19T08:36:45;4.68;;;2.10;;
37973;SDS011;23796;51.458;7.000;2023-03-19T08:39:11;3.30;;;1.42;;
37973;SDS011;23796;51.458;7.000;2023-03-19T08:41:40;2.97;;;1.70;;
37973;SDS011;23796;51.458;7.000;2023-03-19T08:44:05;4.35;;;2.05;;
37973;SDS011;23796;51.458;7.000;2023-03-19T08:46:31;5.25;;;2.25;;
37973;SDS011;23796;51.458;7.000;2023-03-19T08:48:57;3.95;;;2.10;;
37973;SDS011;23796;51.458;7.000;2023-03-19T08:51:23;5.10;;;2.15;;
37973;SDS011;23796;51.458;7.000;2023-03-19T08:53:50;4.82;;;2.28;;
37973;SDS011;23796;51.458;7.000;2023-03-19T08:56:16;3.67;;;2.05;;
37973;SDS011;23796;51.458;7.000;2023-03-19T08:58:42;4.90;;;2.10;;
37973;SDS011;23796;51.458;7.000;2023-03-19T09:01:11;3.42;;;2.08;;
37973;SDS011;23796;51.458;7.000;2023-03-19T09:03:41;4.35;;;2.30;;
37973;SDS011;23796;51.458;7.000;2023-03-19T09:06:08;4.03;;;2.15;;
37973;SDS011;23796;51.458;7.000;2023-03-19T09:08:35;4.05;;;2.30;;
37973;SDS011;23796;51.458;7.000;2023-03-19T09:11:01;6.15;;;2.50;;
37973;SDS011;23796;51.458;7.000;2023-03-19T09:13:28;6.60;;;2.65;;
37973;SDS011;23796;51.458;7.000;2023-03-19T09:15:56;4.03;;;2.20;;
37973;SDS011;23796;51.458;7.000;2023-03-19T09:18:22;3.60;;;1.95;;
37973;SDS011;23796;51.458;7.000;2023-03-19T09:20:49;3.92;;;2.13;;
37973;SDS011;23796;51.458;7.000;2023-03-19T09:23:15;4.95;;;2.40;;
37973;SDS011;23796;51.458;7.000;2023-03-19T09:25:41;4.25;;;1.88;;
37973;SDS011;23796;51.458;7.000;2023-03-19T09:28:09;4.05;;;2.10;;
37973;SDS011;23796;51.458;7.000;2023-03-19T09:30:35;3.17;;;1.77;;
37973;SDS011;23796;51.458;7.000;2023-03-19T09:33:00;4.43;;;2.05;;
37973;SDS011;23796;51.458;7.000;2023-03-19T09:35:30;3.60;;;2.20;;
37973;SDS011;23796;51.458;7.000;2023-03-19T09:38:12;3.65;;;1.80;;
37973;SDS011;23796;51.458;7.000;2023-03-19T09:40:40;4.18;;;2.10;;
37973;SDS011;23796;51.458;7.000;2023-03-19T09:46:01;3.53;;;1.98;;
37973;SDS011;23796;51.458;7.000;2023-03-19T09:51:45;4.03;;;1.83;;
37973;SDS011;23796;51.458;7.000;2023-03-19T09:56:56;3.42;;;1.88;;
37973;SDS011;23796;51.458;7.000;2023-03-19T09:59:22;4.15;;;2.00;;
37973;SDS011;23796;51.458;7.000;2023-03-19T10:01:57;4.03;;;2.25;;
37973;SDS011;23796;51.458;7.000;2023-03-19T10:04:51;3.10;;;2.00;;
37973;SDS011;23796;51.458;7.000;2023-03-19T10:10:33;4.00;;;2.05;;
37973;SDS011;23796;51.458;7.000;2023-03-19T10:15:56;3.30;;;2.10;;
37973;SDS011;23796;51.458;7.000;2023-03-19T10:18:29;5.05;;;2.33;;
37973;SDS011;23796;51.458;7.000;2023-03-19T10:21:01;4.57;;;2.50;;
37973;SDS011;23796;51.458;7.000;2023-03-19T10:23:54;3.00;;;2.00;;
37973;SDS011;23796;51.458;7.000;2023-03-19T10:26:28;5.03;;;2.70;;
37973;SDS011;23796;51.458;7.000;2023-03-19T10:29:09;4.22;;;2.13;;
37973;SDS011;23796;51.458;7.000;2023-03-19T10:34:43;3.10;;;1.95;;
37973;SDS011;23796;51.458;7.000;2023-03-19T10:37:30;4.75;;;3.10;;
37973;SDS011;23796;51.458;7.000;2023-03-19T10:39:58;4.90;;;2.60;;
37973;SDS011;23796;51.458;7.000;2023-03-19T10:45:28;3.35;;;1.90;;
37973;SDS011;23796;51.458;7.000;2023-03-19T10:47:54;3.38;;;1.50;;
37973;SDS011;23796;51.458;7.000;2023-03-19T10:50:22;4.10;;;1.85;;
37973;SDS011;23796;51.458;7.000;2023-03-19T10:52:58;3.03;;;1.67;;
37973;SDS011;23796;51.458;7.000;2023-03-19T10:55:31;3.20;;;1.70;;
37973;SDS011;23796;51.458;7.000;2023-03-19T10:58:22;3.22;;;1.55;;
37973;SDS011;23796;51.458;7.000;2023-03-19T11:01:11;2.85;;;1.70;;
37973;SDS011;23796;51.458;7.000;2023-03-19T11:09:10;4.13;;;2.70;;
37973;SDS011;23796;51.458;7.000;2023-03-19T11:11:33;5.68;;;2.58;;
37973;SDS011;23796;51.458;7.000;2023-03-19T11:14:07;3.55;;;2.22;;
37973;SDS011;23796;51.458;7.000;2023-03-19T11:16:50;5.13;;;2.17;;
37973;SDS011;23796;51.458;7.000;2023-03-19T11:19:26;3.92;;;2.15;;
37973;SDS011;23796;51.458;7.000;2023-03-19T11:24:52;4.43;;;2.72;;
37973;SDS011;23796;51.458;7.000;2023-03-19T11:27:26;3.30;;;2.00;;
37973;SDS011;23796;51.458;7.000;2023-03-19T11:29:54;3.28;;;1.55;;
37973;SDS011;23796;51.458;7.000;2023-03-19T11:34:53;3.00;;;1.50;;
37973;SDS011;23796;51.458;7.000;2023-03-19T11:46:13;2.95;;;1.42;;
37973;SDS011;23796;51.458;7.000;2023-03-19T11:51:37;3.22;;;1.52;;
37973;SDS011;23796;51.458;7.000;2023-03-19T11:54:48;4.35;;;1.70;;
37973;SDS011;23796;51.458;7.000;2023-03-19T12:00:38;2.85;;;1.80;;
37973;SDS011;23796;51.458;7.000;2023-03-19T12:16:28;7.60;;;5.40;;
37973;SDS011;23796;51.458;7.000;2023-03-19T12:30:02;9.25;;;5.90;;
37973;SDS011;23796;51.458;7.000;2023-03-19T12:35:22;7.95;;;6.07;;
37973;SDS011;23796;51.458;7.000;2023-03-19T12:37:57;7.40;;;6.38;;
37973;SDS011;23796;51.458;7.000;2023-03-19T12:43:13;6.38;;;5.68;;
37973;SDS011;23796;51.458;7.000;2023-03-19T12:45:44;6.38;;;5.32;;
37973;SDS011;23796;51.458;7.000;2023-03-19T12:48:30;6.70;;;5.82;;
37973;SDS011;23796;51.458;7.000;2023-03-19T12:51:06;6.30;;;5.70;;
37973;SDS011;23796;51.458;7.000;2023-03-19T12:53:46;6.82;;;4.90;;
37973;SDS011;23796;51.458;7.000;2023-03-19T13:01:42;6.72;;;4.30;;
37973;SDS011;23796;51.458;7.000;2023-03-19T13:06:55;4.80;;;3.47;;
37973;SDS011;23796;51.458;7.000;2023-03-19T13:12:04;3.70;;;2.70;;
37973;SDS011;23796;51.458;7.000;2023-03-19T13:23:45;4.25;;;3.30;;
37973;SDS011;23796;51.458;7.000;2023-03-19T13:26:29;4.13;;;2.88;;
37973;SDS011;23796;51.458;7.000;2023-03-19T13:31:38;3.60;;;2.50;;
37973;SDS011;23796;51.458;7.000;2023-03-19T13:36:46;5.53;;;2.70;;
37973;SDS011;23796;51.458;7.000;2023-03-19T13:39:17;4.20;;;2.60;;
37973;SDS011;23796;51.458;7.000;2023-03-19T13:46:47;4.25;;;2.67;;
37973;SDS011;23796;51.458;7.000;2023-03-19T13:53:09;3.15;;;2.05;;
37973;SDS011;23796;51.458;7.000;2023-03-19T13:54:53;3.00;;;1.77;;
37973;SDS011;23796;51.458;7.000;2023-03-19T13:57:31;2.90;;;1.60;;
37973;SDS011;23796;51.458;7.000;2023-03-19T14:03:21;4.22;;;1.95;;
37973;SDS011;23796;51.458;7.000;2023-03-19T14:05:53;3.72;;;1.80;;
37973;SDS011;23796;51.458;7.000;2023-03-19T14:08:26;4.28;;;2.22;;
37973;SDS011;23796;51.458;7.000;2023-03-19T14:10:56;2.95;;;1.65;;
37973;SDS011;23796;51.458;7.000;2023-03-19T14:16:04;3.60;;;2.10;;
37973;SDS011;23796;51.458;7.000;2023-03-19T14:18:42;4.00;;;1.63;;
37973;SDS011;23796;51.458;7.000;2023-03-19T14:21:15;3.20;;;2.03;;
37973;SDS011;23796;51.458;7.000;2023-03-19T14:23:56;3.03;;;1.73;;
37973;SDS011;23796;51.458;7.000;2023-03-19T14:26:47;4.40;;;1.75;;
37973;SDS011;23796;51.458;7.000;2023-03-19T14:29:13;3.83;;;2.00;;
37973;SDS011;23796;51.458;7.000;2023-03-19T14:37:02;3.58;;;2.10;;
37973;SDS011;23796;51.458;7.000;2023-03-19T14:42:24;5.60;;;3.95;;
37973;SDS011;23796;51.458;7.000;2023-03-19T14:55:42;5.47;;;2.80;;
37973;SDS011;23796;51.458;7.000;2023-03-19T14:58:17;4.25;;;2.67;;
37973;SDS011;23796;51.458;7.000;2023-03-19T15:03:16;4.88;;;3.00;;
37973;SDS011;23796;51.458;7.000;2023-03-19T15:05:57;4.40;;;3.08;;
37973;SDS011;23796;51.458;7.000;2023-03-19T15:08:25;4.63;;;3.08;;
37973;SDS011;23796;51.458;7.000;2023-03-19T15:11:41;6.00;;;3.30;;
37973;SDS011;23796;51.458;7.000;2023-03-19T15:18:51;4.00;;;2.80;;
37973;SDS011;23796;51.458;7.000;2023-03-19T15:21:19;4.57;;;2.63;;
37973;SDS011;23796;51.458;7.000;2023-03-19T15:23:48;5.65;;;2.60;;
37973;SDS011;23796;51.458;7.000;2023-03-19T15:26:13;5.20;;;2.33;;
37973;SDS011;23796;51.458;7.000;2023-03-19T15:28:52;4.55;;;2.40;;
37973;SDS011;23796;51.458;7.000;2023-03-19T15:31:18;4.97;;;2.67;;
37973;SDS011;23796;51.458;7.000;2023-03-19T15:33:44;4.13;;;2.78;;
37973;SDS011;23796;51.458;7.000;2023-03-19T15:41:16;4.57;;;2.20;;
37973;SDS011;23796;51.458;7.000;2023-03-19T15:43:45;4.55;;;2.38;;
37973;SDS011;23796;51.458;7.000;2023-03-19T15:46:15;4.25;;;2.60;;
37973;SDS011;23796;51.458;7.000;2023-03-19T15:51:24;4.85;;;2.10;;
37973;SDS011;23796;51.458;7.000;2023-03-19T15:53:51;4.75;;;2.47;;
37973;SDS011;23796;51.458;7.000;2023-03-19T15:56:17;6.47;;;2.35;;
37973;SDS011;23796;51.458;7.000;2023-03-19T15:58:45;4.38;;;2.13;;
37973;SDS011;23796;51.458;7.000;2023-03-19T16:01:14;3.60;;;2.20;;
37973;SDS011;23796;51.458;7.000;2023-03-19T16:06:28;4.57;;;2.10;;
37973;SDS011;23796;51.458;7.000;2023-03-19T16:11:50;6.50;;;2.30;;
37973;SDS011;23796;51.458;7.000;2023-03-19T16:17:08;4.30;;;2.80;;
37973;SDS011;23796;51.458;7.000;2023-03-19T16:19:37;5.82;;;2.70;;
37973;SDS011;23796;51.458;7.000;2023-03-19T16:22:15;4.00;;;2.40;;
37973;SDS011;23796;51.458;7.000;2023-03-19T16:24:45;5.18;;;2.50;;
37973;SDS011;23796;51.458;7.000;2023-03-19T16:27:13;4.53;;;2.20;;
37973;SDS011;23796;51.458;7.000;2023-03-19T16:29:58;4.55;;;2.25;;
37973;SDS011;23796;51.458;7.000;2023-03-19T16:32:25;5.68;;;2.00;;
37973;SDS011;23796;51.458;7.000;2023-03-19T16:34:54;3.90;;;2.20;;
37973;SDS011;23796;51.458;7.000;2023-03-19T16:37:39;4.18;;;2.40;;
37973;SDS011;23796;51.458;7.000;2023-03-19T16:42:52;5.05;;;2.90;;
37973;SDS011;23796;51.458;7.000;2023-03-19T16:47:56;4.90;;;2.60;;
37973;SDS011;23796;51.458;7.000;2023-03-19T16:50:26;4.72;;;2.35;;
37973;SDS011;23796;51.458;7.000;2023-03-19T16:52:53;4.18;;;2.50;;
37973;SDS011;23796;51.458;7.000;2023-03-19T16:55:33;3.75;;;2.35;;
37973;SDS011;23796;51.458;7.000;2023-03-19T17:00:29;4.85;;;2.30;;
37973;SDS011;23796;51.458;7.000;2023-03-19T17:02:56;4.55;;;2.08;;
37973;SDS011;23796;51.458;7.000;2023-03-19T17:05:22;5.00;;;2.45;;
37973;SDS011;23796;51.458;7.000;2023-03-19T17:07:50;6.38;;;2.45;;
37973;SDS011;23796;51.458;7.000;2023-03-19T17:10:17;4.50;;;2.53;;
37973;SDS011;23796;51.458;7.000;2023-03-19T17:12:50;4.95;;;2.42;;
37973;SDS011;23796;51.458;7.000;2023-03-19T17:17:59;4.00;;;2.40;;
37973;SDS011;23796;51.458;7.000;2023-03-19T17:20:29;5.47;;;2.70;;
37973;SDS011;23796;51.458;7.000;2023-03-19T17:22:57;4.63;;;2.28;;
37973;SDS011;23796;51.458;7.000;2023-03-19T17:25:23;4.63;;;2.10;;
37973;SDS011;23796;51.458;7.000;2023-03-19T17:27:49;5.00;;;2.38;;
37973;SDS011;23796;51.458;7.000;2023-03-19T17:30:19;4.72;;;2.08;;
37973;SDS011;23796;51.458;7.000;2023-03-19T17:32:45;5.05;;;2.22;;
37973;SDS011;23796;51.458;7.000;2023-03-19T17:35:17;4.47;;;2.00;;
37973;SDS011;23796;51.458;7.000;2023-03-19T17:37:46;5.10;;;2.55;;
37973;SDS011;23796;51.458;7.000;2023-03-19T17:42:49;4.18;;;2.03;;
37973;SDS011;23796;51.458;7.000;2023-03-19T17:45:15;4.68;;;2.50;;
37973;SDS011;23796;51.458;7.000;2023-03-19T17:47:43;4.25;;;2.33;;
37973;SDS011;23796;51.458;7.000;2023-03-19T17:50:14;6.55;;;2.35;;
37973;SDS011;23796;51.458;7.000;2023-03-19T17:52:44;5.18;;;2.28;;
37973;SDS011;23796;51.458;7.000;2023-03-19T17:55:18;4.60;;;2.28;;